Portada
METAR-TAF:

METAR-TAF

Aeroports :

Àqaba, Jordània

latitud: 29-38N, longitud: 035-01E, altitud: 53 m

Observació

L'informe es va fer fa 49 minuts, a les 15:00 UTC
Vent 12 kt del Nord
Temperatura 21°C
Humitat 30%
Pressió 1018 hPa
Visibilitat 10 km o més
sense núvols per sota de 1500 mi sense presència de cumulonimbus.

METAR: OJAQ 251500Z 35012KT CAVOK 21/03 Q1018 NOSIG

Hora: 17:49 (15:49 UTC)

Pronòstic

L'informe es va fer fa 4 hores i 49 minuts, a les 11:00 UTC
Pronòstic vàlid del 24 a les 12 UTC al 25 a les 18 UTC
Vent 12 kt del Nord
Visibilitat: 6000 m

TAF: OJAQ 251100Z 2412/2518 36012KT 6000 NSC

Observacions i pronòstics meteorològics de més de 4000 aeroports (METAR i TAF).

Les estacions disponibles són els punts grocs i vermells al mapa.

Posi el ratolí al punt desitjat per veure el nom de l'estació.

Feu clic per veure les observacions i els pronòstics meteorològics.

Per canviar el mapa: feu clic els botons verds amb una creu de color negre per apropar; al botó verd amb un guió per allunyar la imatge; o en les fletxes verdes per a mapes adjacents.


METAR-TAF: